Time;durP1;ratioP1;P1;durP2;ratioP2;P2;SDS_P1;SDS_P2;PMS_P1;PMS_P2;Temp;Humidity;BMP_temperature;BMP_pressure;BME280_temperature;BME280_humidity;BME280_pressure;Samples;Min_cycle;Max_cycle;Signal;HPM_P1;HPM_P2
2022/06/24 00:00:36;;;;;;;0.08;0.08;;;;;;;26.38;52.43;100764.59;5090432;28;20028;-77
2022/06/24 00:03:03;;;;;;;0.00;0.00;;;;;;;26.34;52.86;100761.28;5074240;28;20571;-77
2022/06/24 00:05:29;;;;;;;0.05;0.05;;;;;;;26.34;52.65;100755.00;5084891;28;20425;-77
2022/06/24 00:07:57;;;;;;;0.40;0.40;;;;;;;26.34;52.13;100753.13;5087147;28;20032;-77
2022/06/24 00:10:29;;;;;;;0.40;0.40;;;;;;;26.37;52.00;100746.56;5083359;28;20091;-77
2022/06/24 00:12:56;;;;;;;0.20;0.20;;;;;;;26.36;51.89;100743.00;5080595;28;20040;-77
2022/06/24 00:15:25;;;;;;;0.10;0.10;;;;;;;26.37;52.70;100733.88;5087542;28;20044;-77
2022/06/24 00:17:52;;;;;;;0.10;0.10;;;;;;;26.36;52.30;100718.56;5084797;28;20025;-77
2022/06/24 00:20:20;;;;;;;0.10;0.10;;;;;;;26.36;52.30;100709.56;5089330;28;20125;-77
2022/06/24 00:22:49;;;;;;;0.00;0.00;;;;;;;26.37;52.10;100712.13;5097109;28;20025;-77
2022/06/24 00:25:19;;;;;;;0.03;0.03;;;;;;;26.39;51.65;100701.97;5080328;28;20044;-77
2022/06/24 00:28:07;;;;;;;0.10;0.10;;;;;;;26.47;52.38;100713.03;5076520;28;20111;-77
2022/06/24 00:30:55;;;;;;;0.00;0.00;;;;;;;26.48;52.84;100714.75;5070782;28;20497;-77
2022/06/24 00:33:25;;;;;;;0.05;0.05;;;;;;;26.41;52.47;100713.56;5069463;28;20082;-77
2022/06/24 00:35:53;;;;;;;0.25;0.25;;;;;;;26.39;52.79;100736.44;5075869;28;20115;-77
2022/06/24 00:41:14;;;;;;;0.32;0.32;;;;;;;26.00;54.07;100769.66;5073263;28;20390;-76
2022/06/24 00:43:43;;;;;;;0.30;0.30;;;;;;;25.71;54.70;100778.44;5045524;28;20034;-77
2022/06/24 00:46:14;;;;;;;0.28;0.28;;;;;;;25.64;54.32;100772.66;5054765;28;20028;-77
2022/06/24 00:48:46;;;;;;;0.57;0.57;;;;;;;25.49;54.57;100799.25;5050098;28;20463;-77
2022/06/24 00:51:12;;;;;;;;;;;;;;;25.37;56.30;100821.97;5043003;28;20030;-79
2022/06/24 00:53:42;;;;;;;0.70;0.70;;;;;;;24.92;60.03;100846.44;5042011;28;19936;-77
2022/06/24 00:56:10;;;;;;;0.32;0.32;;;;;;;24.09;63.47;100878.16;5060353;28;20021;-77
2022/06/24 00:58:37;;;;;;;2.13;1.17;;;;;;;23.63;65.48;100890.56;5060365;28;20502;-77
2022/06/24 01:01:04;;;;;;;2.35;2.15;;;;;;;23.31;66.41;100891.13;5045652;28;20094;-77
2022/06/24 01:03:40;;;;;;;0.10;0.10;;;;;;;23.04;67.57;100913.72;5047968;28;20017;-77
2022/06/24 01:06:08;;;;;;;0.60;0.60;;;;;;;22.90;67.16;100912.91;5037815;28;20028;-77
2022/06/24 01:08:34;;;;;;;1.17;1.17;;;;;;;22.73;68.61;100924.88;5042019;28;20032;-77
2022/06/24 01:11:01;;;;;;;0.00;0.00;;;;;;;22.69;68.72;100925.19;5046428;28;20045;-75
2022/06/24 01:13:28;;;;;;;0.20;0.20;;;;;;;22.64;68.30;100921.97;5033437;28;20034;-76
2022/06/24 01:15:55;;;;;;;0.00;0.00;;;;;;;22.60;68.64;100905.09;5045921;28;20033;-77
2022/06/24 01:18:21;;;;;;;0.52;0.32;;;;;;;22.54;68.71;100916.34;5043046;28;20039;-76
2022/06/24 01:20:48;;;;;;;0.57;0.57;;;;;;;22.49;67.95;100902.28;5055115;28;20025;-76
2022/06/24 01:23:23;;;;;;;0.85;0.85;;;;;;;22.49;68.11;100903.16;5053531;28;20033;-76
2022/06/24 01:25:49;;;;;;;1.73;1.63;;;;;;;22.39;67.96;100896.66;5035758;28;20106;-76
2022/06/24 01:28:15;;;;;;;0.00;0.00;;;;;;;22.29;69.94;100902.69;5046337;28;20195;-76
2022/06/24 01:30:42;;;;;;;0.00;0.00;;;;;;;22.30;69.93;100898.97;5040867;28;20095;-75
2022/06/24 01:33:08;;;;;;;3.05;2.78;;;;;;;22.27;69.19;100880.31;5040775;28;20112;-76
2022/06/24 01:35:34;;;;;;;0.10;0.10;;;;;;;22.25;68.40;100863.34;5038841;28;20052;-76
2022/06/24 01:38:00;;;;;;;0.77;0.73;;;;;;;22.19;68.71;100850.28;5044765;28;20545;-75
2022/06/24 01:40:26;;;;;;;0.10;0.10;;;;;;;22.19;69.22;100844.03;5038811;28;20108;-76
2022/06/24 01:42:52;;;;;;;0.25;0.25;;;;;;;22.13;69.73;100837.22;5043656;28;20041;-76
2022/06/24 01:45:19;;;;;;;0.47;0.47;;;;;;;22.05;70.01;100826.94;5040229;28;20025;-76
2022/06/24 01:47:45;;;;;;;0.00;0.00;;;;;;;22.11;69.41;100823.84;5039109;28;20040;-76
2022/06/24 01:50:11;;;;;;;0.57;0.57;;;;;;;22.13;69.12;100821.03;5042855;28;20033;-76
2022/06/24 01:52:37;;;;;;;0.85;0.57;;;;;;;22.09;70.28;100820.41;5040561;28;20249;-76
2022/06/24 01:55:04;;;;;;;1.02;0.63;;;;;;;22.12;69.83;100830.97;5040723;28;20064;-76
2022/06/24 01:57:30;;;;;;;0.55;0.40;;;;;;;22.16;69.40;100831.63;5030060;28;20084;-76
2022/06/24 01:59:59;;;;;;;0.10;0.10;;;;;;;22.18;69.26;100832.38;5031005;28;20032;-76
2022/06/24 02:02:26;;;;;;;0.00;0.00;;;;;;;22.23;69.14;100819.44;5015842;28;20026;-76
2022/06/24 02:04:54;;;;;;;0.00;0.00;;;;;;;22.26;69.32;100812.97;5018945;28;20033;-76
2022/06/24 02:07:21;;;;;;;0.00;0.00;;;;;;;22.28;68.82;100809.19;5032632;28;20037;-76
2022/06/24 02:15:20;;;;;;;0.10;0.10;;;;;;;22.37;69.27;100785.19;5021360;28;20041;-76
2022/06/24 02:17:46;;;;;;;0.05;0.05;;;;;;;22.37;69.15;100785.19;5027067;28;20052;-76
2022/06/24 02:20:12;;;;;;;0.28;0.28;;;;;;;22.34;68.92;100767.38;5022416;28;20483;-76
2022/06/24 02:22:38;;;;;;;0.00;0.00;;;;;;;22.37;67.97;100766.28;5036855;28;20474;-77
2022/06/24 02:25:05;;;;;;;0.57;0.57;;;;;;;22.38;68.20;100770.75;5031208;28;20030;-77
2022/06/24 02:27:31;;;;;;;0.22;0.22;;;;;;;22.39;68.62;100759.88;5020393;28;20036;-76
2022/06/24 02:29:57;;;;;;;0.17;0.17;;;;;;;22.40;68.55;100766.97;5030045;28;20038;-76
2022/06/24 02:32:23;;;;;;;0.20;0.20;;;;;;;22.40;69.99;100768.81;5032000;28;20029;-76
2022/06/24 02:34:49;;;;;;;2.45;0.55;;;;;;;22.42;68.98;100769.59;5039846;28;20411;-76
2022/06/24 02:37:15;;;;;;;0.00;0.00;;;;;;;22.39;68.04;100761.69;5048090;28;20037;-77
2022/06/24 02:39:42;;;;;;;0.25;0.25;;;;;;;22.43;68.53;100760.50;5037549;28;20028;-77
2022/06/24 02:42:10;;;;;;;0.73;0.73;;;;;;;22.41;69.42;100759.75;5044714;28;20056;-77
2022/06/24 02:44:36;;;;;;;0.10;0.10;;;;;;;22.33;69.54;100762.09;5044277;28;20100;-77
2022/06/24 02:47:03;;;;;;;0.52;0.30;;;;;;;22.18;70.11;100754.13;5031127;28;20033;-76
2022/06/24 02:49:29;;;;;;;0.00;0.00;;;;;;;22.15;69.41;100730.03;5034957;28;20040;-77
2022/06/24 02:51:56;;;;;;;0.10;0.10;;;;;;;22.15;69.07;100716.56;5034263;28;20116;-77
2022/06/24 02:54:22;;;;;;;0.00;0.00;;;;;;;22.17;68.69;100727.22;5033703;28;20162;-77
2022/06/24 02:56:49;;;;;;;0.00;0.00;;;;;;;22.17;69.15;100735.31;5030173;28;20043;-77
2022/06/24 02:59:15;;;;;;;0.00;0.00;;;;;;;22.20;69.53;100746.78;5037478;28;20426;-77
2022/06/24 03:01:41;;;;;;;0.00;0.00;;;;;;;22.24;69.47;100739.31;5025621;28;20045;-77
2022/06/24 03:04:07;;;;;;;0.55;0.55;;;;;;;22.29;69.07;100726.38;5029537;28;20017;-76
2022/06/24 03:06:33;;;;;;;0.10;0.10;;;;;;;22.32;69.06;100725.28;5038301;28;20380;-76
2022/06/24 03:08:59;;;;;;;0.00;0.00;;;;;;;22.31;69.67;100721.72;5051316;28;20021;-76
2022/06/24 03:11:25;;;;;;;0.00;0.00;;;;;;;22.31;68.80;100727.13;5043275;28;20452;-76
2022/06/24 03:13:51;;;;;;;0.00;0.00;;;;;;;22.30;68.92;100731.66;5037192;28;20065;-77
2022/06/24 03:16:17;;;;;;;1.90;0.55;;;;;;;22.27;69.86;100734.56;5026651;28;20025;-76
2022/06/24 03:18:43;;;;;;;0.30;0.30;;;;;;;22.27;68.53;100744.53;5023777;28;20026;-76
2022/06/24 03:21:10;;;;;;;0.10;0.10;;;;;;;22.22;68.91;100747.53;5043256;28;20041;-76
2022/06/24 03:23:36;;;;;;;0.47;0.47;;;;;;;22.20;68.39;100749.47;5037953;28;20145;-76
2022/06/24 03:26:02;;;;;;;0.00;0.00;;;;;;;22.17;68.58;100752.41;5047561;28;20029;-76
2022/06/24 03:28:29;;;;;;;0.05;0.05;;;;;;;22.16;68.41;100750.66;5025213;28;20434;-77
2022/06/24 03:30:55;;;;;;;0.00;0.00;;;;;;;22.10;69.13;100746.56;5033247;28;20072;-77
2022/06/24 03:33:21;;;;;;;0.00;0.00;;;;;;;22.09;69.07;100752.06;5033503;28;20112;-76
2022/06/24 03:35:48;;;;;;;0.10;0.10;;;;;;;22.08;68.64;100767.41;5036795;28;20441;-77
2022/06/24 03:38:14;;;;;;;0.63;0.63;;;;;;;22.04;68.38;100773.97;5037087;28;20028;-76
2022/06/24 03:40:40;;;;;;;0.47;0.47;;;;;;;22.01;69.36;100773.31;5035969;28;20036;-77
2022/06/24 03:43:06;;;;;;;0.15;0.15;;;;;;;22.00;69.10;100777.00;5032313;28;20048;-76
2022/06/24 03:45:32;;;;;;;0.00;0.00;;;;;;;22.01;69.26;100784.09;5030176;28;20057;-77
2022/06/24 03:47:58;;;;;;;0.00;0.00;;;;;;;21.98;69.78;100777.97;5042947;28;20060;-77
2022/06/24 03:50:24;;;;;;;0.20;0.20;;;;;;;21.92;69.83;100780.19;5038567;28;20124;-77
2022/06/24 03:52:50;;;;;;;0.43;0.43;;;;;;;21.95;69.44;100780.84;5027930;28;20030;-77
2022/06/24 03:55:17;;;;;;;0.10;0.10;;;;;;;21.98;68.98;100775.28;5039028;28;20084;-76
2022/06/24 03:57:43;;;;;;;0.00;0.00;;;;;;;21.99;69.41;100781.50;5033624;28;20037;-76
2022/06/24 04:00:10;;;;;;;0.00;0.00;;;;;;;22.00;69.36;100783.25;5032557;28;20025;-76
2022/06/24 04:02:37;;;;;;;0.00;0.00;;;;;;;22.01;69.61;100786.78;5030981;28;20037;-76
2022/06/24 04:05:03;;;;;;;0.10;0.10;;;;;;;22.04;69.11;100789.28;5028896;28;20071;-76
2022/06/24 04:07:29;;;;;;;0.00;0.00;;;;;;;22.07;69.63;100778.28;5030641;28;20029;-76
2022/06/24 04:09:55;;;;;;;0.00;0.00;;;;;;;22.10;69.69;100778.94;5023816;28;20029;-75
2022/06/24 04:12:21;;;;;;;0.00;0.00;;;;;;;22.14;69.72;100768.78;5030598;28;20056;-76
2022/06/24 04:15:19;;;;;;;0.00;0.00;;;;;;;22.18;69.72;100762.22;5032124;28;20499;-76
2022/06/24 04:17:33;;;;;;;0.90;0.90;;;;;;;22.22;69.83;100760.16;5028148;28;20041;-76
2022/06/24 04:19:59;;;;;;;0.00;0.00;;;;;;;22.23;69.24;100757.38;5042477;28;20605;-76
2022/06/24 04:22:26;;;;;;;0.00;0.00;;;;;;;22.25;69.29;100747.31;5043201;28;20052;-76
2022/06/24 04:24:52;;;;;;;0.10;0.10;;;;;;;22.28;70.03;100739.00;5024064;28;20084;-76
2022/06/24 04:27:18;;;;;;;0.03;0.03;;;;;;;22.33;69.54;100735.09;5029715;28;20038;-76
2022/06/24 04:29:46;;;;;;;0.00;0.00;;;;;;;22.37;69.45;100723.09;5027375;28;20037;-76
2022/06/24 04:32:12;;;;;;;0.17;0.17;;;;;;;22.37;69.70;100715.00;5028090;28;20022;-76
2022/06/24 04:34:38;;;;;;;0.10;0.10;;;;;;;22.39;69.47;100700.50;5024446;28;20100;-76
2022/06/24 04:37:06;;;;;;;0.00;0.00;;;;;;;22.42;69.55;100696.72;5034879;28;20584;-76
2022/06/24 04:39:32;;;;;;;0.03;0.03;;;;;;;22.40;69.68;100690.53;5024850;28;20505;-76
2022/06/24 04:41:59;;;;;;;0.00;0.00;;;;;;;22.39;69.46;100683.41;5027091;28;20029;-76
2022/06/24 04:44:25;;;;;;;0.00;0.00;;;;;;;22.40;69.63;100664.41;5031167;28;20025;-76
2022/06/24 04:46:51;;;;;;;0.20;0.20;;;;;;;22.42;69.56;100664.31;5024850;28;20120;-76
2022/06/24 04:49:17;;;;;;;0.28;0.28;;;;;;;22.45;69.74;100658.66;5025770;28;20033;-76
2022/06/24 04:51:43;;;;;;;0.10;0.10;;;;;;;22.47;70.31;100664.84;5028815;28;20084;-76
2022/06/24 04:54:09;;;;;;;0.47;0.47;;;;;;;22.50;69.89;100674.53;5030519;28;20051;-76
2022/06/24 04:56:35;;;;;;;1.77;0.45;;;;;;;22.54;70.41;100678.72;5039172;28;20033;-76
2022/06/24 04:59:01;;;;;;;0.40;0.40;;;;;;;22.57;70.11;100686.63;5039687;28;20507;-76
2022/06/24 05:01:29;;;;;;;0.30;0.30;;;;;;;22.60;70.18;100681.88;5023797;28;20108;-76
2022/06/24 05:03:55;;;;;;;0.50;0.50;;;;;;;22.65;70.01;100691.47;5032666;28;20121;-76
2022/06/24 05:06:21;;;;;;;0.45;0.45;;;;;;;22.67;69.92;100694.88;5025735;28;20407;-76
2022/06/24 05:08:47;;;;;;;0.10;0.10;;;;;;;22.69;69.79;100692.94;5039839;28;20518;-76
2022/06/24 05:11:14;;;;;;;0.00;0.00;;;;;;;22.72;69.71;100687.34;5038603;28;20515;-76
2022/06/24 05:13:40;;;;;;;0.20;0.20;;;;;;;22.74;69.78;100697.06;5030829;28;20031;-76
2022/06/24 05:16:06;;;;;;;0.05;0.05;;;;;;;22.76;69.96;100702.31;5040599;28;20033;-76
2022/06/24 05:18:32;;;;;;;0.00;0.00;;;;;;;22.76;69.16;100695.06;5058433;23;20049;-81
2022/06/24 05:20:58;;;;;;;0.50;0.50;;;;;;;22.80;69.29;100702.97;5013792;28;20061;-78
2022/06/24 05:23:25;;;;;;;0.10;0.10;;;;;;;22.83;69.25;100698.19;5017637;28;20041;-79
2022/06/24 05:25:51;;;;;;;0.10;0.10;;;;;;;22.86;69.27;100711.47;5026806;28;20599;-80
2022/06/24 05:28:17;;;;;;;0.08;0.08;;;;;;;22.88;69.55;100706.81;5013497;28;20025;-80
2022/06/24 05:30:43;;;;;;;0.10;0.10;;;;;;;22.90;69.34;100707.59;5018299;28;20036;-80
2022/06/24 05:33:09;;;;;;;0.05;0.05;;;;;;;22.89;69.35;100708.56;5030955;28;20491;-81
2022/06/24 05:35:36;;;;;;;0.00;0.00;;;;;;;22.91;68.91;100706.56;5024583;28;20524;-81
2022/06/24 05:38:02;;;;;;;0.10;0.10;;;;;;;22.92;68.97;100716.41;5030125;28;20030;-80
2022/06/24 05:40:29;;;;;;;0.00;0.00;;;;;;;22.94;69.04;100719.88;5027032;28;20033;-80
2022/06/24 05:42:55;;;;;;;0.38;0.38;;;;;;;22.97;68.94;100729.59;5023774;28;20038;-83
2022/06/24 05:45:21;;;;;;;0.20;0.20;;;;;;;22.96;68.96;100732.41;5018970;28;20045;-83
2022/06/24 05:47:47;;;;;;;0.03;0.03;;;;;;;22.97;68.96;100728.72;5019200;28;20532;-81
2022/06/24 05:50:14;;;;;;;0.03;0.03;;;;;;;22.93;69.07;100731.66;5025003;28;20496;-82
2022/06/24 05:55:26;;;;;;;0.10;0.10;;;;;;;22.88;68.75;100733.84;5010640;28;20099;-81
2022/06/24 05:57:52;;;;;;;0.05;0.05;;;;;;;22.86;69.08;100732.22;5020624;28;20042;-81
2022/06/24 06:00:18;;;;;;;0.90;0.90;;;;;;;22.83;69.17;100735.13;5016617;28;20041;-83
2022/06/24 06:02:44;;;;;;;0.00;0.00;;;;;;;22.84;69.09;100737.75;5021904;28;20125;-84
2022/06/24 06:05:11;;;;;;;1.27;1.08;;;;;;;22.85;68.94;100747.56;5008670;28;20034;-83
2022/06/24 06:07:37;;;;;;;0.15;0.15;;;;;;;22.84;69.30;100745.84;5016430;28;20048;-82
2022/06/24 06:10:04;;;;;;;0.50;0.50;;;;;;;22.86;69.50;100743.88;5015781;28;20033;-83
2022/06/24 06:12:33;;;;;;;0.40;0.40;;;;;;;22.90;69.19;100748.09;5015320;28;20029;-81
2022/06/24 06:14:59;;;;;;;0.20;0.20;;;;;;;22.90;69.36;100733.72;5026031;28;20029;-82
2022/06/24 06:17:25;;;;;;;0.30;0.30;;;;;;;22.91;69.43;100739.00;5029353;28;20045;-83
2022/06/24 06:19:51;;;;;;;0.15;0.15;;;;;;;22.93;69.27;100737.06;5020640;28;20484;-83
2022/06/24 06:22:17;;;;;;;0.15;0.13;;;;;;;22.92;69.24;100748.84;5016340;28;20026;-82
2022/06/24 06:24:43;;;;;;;0.00;0.00;;;;;;;22.92;69.27;100753.38;5020331;28;20029;-81
2022/06/24 06:27:09;;;;;;;0.30;0.30;;;;;;;22.93;69.17;100745.16;5018661;28;20037;-81
2022/06/24 06:29:36;;;;;;;0.00;0.00;;;;;;;22.91;69.32;100740.84;5025543;28;20105;-82
2022/06/24 06:32:02;;;;;;;1.95;0.60;;;;;;;22.90;69.08;100748.09;5020478;28;20038;-81
2022/06/24 06:34:32;;;;;;;0.05;0.05;;;;;;;22.84;69.13;100745.84;5021525;28;20145;-81
2022/06/24 06:36:58;;;;;;;0.10;0.10;;;;;;;22.88;68.72;100736.53;5018167;28;20030;-81
2022/06/24 06:39:24;;;;;;;0.20;0.20;;;;;;;22.89;69.03;100749.06;5013276;28;20027;-80
2022/06/24 06:41:51;;;;;;;0.20;0.20;;;;;;;22.91;68.93;100752.50;4998444;28;20417;-80
2022/06/24 06:44:17;;;;;;;0.10;0.10;;;;;;;22.89;69.05;100745.50;5010851;28;20026;-81
2022/06/24 06:46:43;;;;;;;0.40;0.40;;;;;;;22.90;68.89;100750.81;5018474;28;20030;-80
2022/06/24 06:49:09;;;;;;;0.50;0.40;;;;;;;22.90;68.79;100739.13;5002381;28;20489;-80
2022/06/24 06:51:36;;;;;;;0.00;0.00;;;;;;;22.91;68.84;100744.41;4997573;28;20065;-80
2022/06/24 06:54:02;;;;;;;0.00;0.00;;;;;;;22.90;68.85;100745.41;4999117;28;20034;-80
2022/06/24 06:56:31;;;;;;;0.10;0.10;;;;;;;22.88;69.08;100747.34;4999832;28;20046;-82
2022/06/24 06:58:57;;;;;;;0.57;0.57;;;;;;;22.88;68.99;100747.34;5017131;28;20165;-81
2022/06/24 07:01:23;;;;;;;0.68;0.55;;;;;;;22.91;68.94;100749.81;5015611;28;20034;-84
2022/06/24 07:03:49;;;;;;;0.70;0.70;;;;;;;22.93;69.00;100750.56;5015292;28;20026;-82
2022/06/24 07:06:16;;;;;;;0.13;0.13;;;;;;;22.98;69.10;100755.63;5015614;28;20399;-82
2022/06/24 07:08:42;;;;;;;0.93;0.93;;;;;;;23.00;69.31;100756.38;5016355;28;20030;-83
2022/06/24 07:11:08;;;;;;;0.20;0.20;;;;;;;22.99;69.28;100756.50;5016235;28;20022;-84
2022/06/24 07:13:34;;;;;;;0.00;0.00;;;;;;;22.96;68.65;100764.84;5033393;28;20034;-84
2022/06/24 07:16:00;;;;;;;0.20;0.20;;;;;;;22.90;68.73;100758.91;5026039;28;20092;-83
2022/06/24 07:18:26;;;;;;;1.05;1.05;;;;;;;22.77;68.69;100758.94;5013582;28;20065;-82
2022/06/24 07:20:52;;;;;;;1.35;1.17;;;;;;;22.85;68.61;100768.31;5012446;28;20036;-80
2022/06/24 07:23:19;;;;;;;0.00;0.00;;;;;;;22.91;68.64;100763.31;5014519;28;20053;-81
2022/06/24 07:25:45;;;;;;;0.10;0.10;;;;;;;22.93;68.46;100761.38;5014483;28;20508;-80
2022/06/24 07:28:11;;;;;;;0.43;0.43;;;;;;;23.09;68.31;100760.22;5014533;28;20477;-82
2022/06/24 07:30:37;;;;;;;0.15;0.10;;;;;;;23.10;67.45;100756.56;5012256;28;20064;-81
2022/06/24 07:33:04;;;;;;;0.10;0.10;;;;;;;23.09;67.24;100757.53;5014224;28;20034;-82
2022/06/24 07:35:30;;;;;;;0.03;0.03;;;;;;;23.04;67.41;100759.72;5013694;28;20504;-81
2022/06/24 07:37:56;;;;;;;0.10;0.10;;;;;;;22.98;67.25;100758.34;5009240;28;20026;-81
2022/06/24 07:40:23;;;;;;;0.00;0.00;;;;;;;22.90;66.72;100764.31;4994881;28;20054;-83
2022/06/24 07:42:49;;;;;;;0.20;0.20;;;;;;;22.85;66.91;100769.16;4994565;28;20109;-82
2022/06/24 07:45:16;;;;;;;0.50;0.50;;;;;;;22.75;66.10;100770.81;4994431;28;20065;-82
2022/06/24 07:47:42;;;;;;;0.35;0.35;;;;;;;22.62;65.95;100757.34;5000461;28;20028;-84
2022/06/24 07:50:08;;;;;;;0.45;0.45;;;;;;;22.54;65.87;100760.63;5014059;28;20049;-83
2022/06/24 07:52:34;;;;;;;1.00;0.68;;;;;;;22.53;65.85;100758.88;5014280;28;20033;-83
2022/06/24 07:57:47;;;;;;;0.00;0.00;;;;;;;22.69;66.54;100757.75;5017852;28;20038;-84
2022/06/24 08:00:14;;;;;;;0.57;0.57;;;;;;;22.75;66.21;100757.31;5017766;28;20037;-85
2022/06/24 08:02:40;;;;;;;0.10;0.10;;;;;;;22.78;66.30;100762.50;5017487;28;20068;-84
2022/06/24 08:05:09;;;;;;;0.30;0.30;;;;;;;22.76;66.17;100761.75;5016737;28;20084;-85
2022/06/24 08:07:35;;;;;;;0.00;0.00;;;;;;;22.83;65.86;100765.72;5012781;28;20057;-83
2022/06/24 08:10:01;;;;;;;0.10;0.10;;;;;;;22.84;66.07;100764.75;5014520;28;20026;-83
2022/06/24 08:12:27;;;;;;;0.25;0.25;;;;;;;22.78;65.43;100760.66;5012809;28;20026;-83
2022/06/24 08:14:53;;;;;;;0.03;0.03;;;;;;;22.88;65.88;100759.97;5014755;28;20038;-81
2022/06/24 08:17:19;;;;;;;0.20;0.20;;;;;;;22.97;65.81;100756.59;5014671;28;20032;-82
2022/06/24 08:19:45;;;;;;;0.25;0.25;;;;;;;23.11;66.24;100758.28;5014828;28;20040;-82
2022/06/24 08:22:12;;;;;;;0.10;0.10;;;;;;;23.21;66.25;100764.75;5014801;28;20400;-83
2022/06/24 08:24:38;;;;;;;0.40;0.40;;;;;;;23.26;65.01;100757.19;5015539;28;20026;-83
2022/06/24 08:27:05;;;;;;;0.70;0.70;;;;;;;23.30;64.39;100759.66;5016425;28;20427;-81
2022/06/24 08:29:31;;;;;;;0.10;0.10;;;;;;;23.36;64.30;100756.47;5030845;28;20040;-79
2022/06/24 08:31:57;;;;;;;4.90;2.15;;;;;;;23.35;64.59;100754.75;5025448;28;20108;-82
2022/06/24 08:34:23;;;;;;;0.30;0.30;;;;;;;23.41;63.97;100748.88;5012968;28;20092;-81
2022/06/24 08:36:49;;;;;;;3.30;1.75;;;;;;;23.46;64.66;100749.38;5013706;28;20033;-81
2022/06/24 08:39:15;;;;;;;0.43;0.43;;;;;;;23.53;64.50;100747.94;5013182;28;20124;-81
2022/06/24 08:41:45;;;;;;;4.18;1.20;;;;;;;23.64;64.57;100757.94;5012881;28;20087;-81
2022/06/24 08:44:15;;;;;;;0.40;0.40;;;;;;;23.70;63.93;100753.91;5014013;28;20033;-80
2022/06/24 08:46:41;;;;;;;0.28;0.28;;;;;;;23.74;63.90;100744.59;5013037;28;20030;-80
2022/06/24 08:49:07;;;;;;;0.10;0.10;;;;;;;23.79;63.77;100736.97;5014067;28;20116;-81
2022/06/24 08:51:34;;;;;;;0.00;0.00;;;;;;;23.86;63.73;100735.53;5018971;28;20042;-81
2022/06/24 08:54:03;;;;;;;0.03;0.03;;;;;;;23.93;63.25;100738.63;5025674;28;20040;-82
2022/06/24 08:56:30;;;;;;;0.00;0.00;;;;;;;24.03;63.25;100734.19;5017758;28;20042;-83
2022/06/24 08:58:57;;;;;;;0.88;0.60;;;;;;;24.01;62.11;100741.59;5016999;28;20078;-83
2022/06/24 09:01:23;;;;;;;0.22;0.22;;;;;;;24.06;61.73;100736.69;5017563;28;20036;-81
2022/06/24 09:03:50;;;;;;;0.45;0.45;;;;;;;24.06;61.42;100741.22;5014906;28;20038;-85
2022/06/24 09:06:17;;;;;;;0.65;0.65;;;;;;;24.14;61.87;100740.59;5020276;28;20038;-85
2022/06/24 09:08:50;;;;;;;0.63;0.63;;;;;;;24.17;61.74;100741.22;5020821;28;20025;-85
2022/06/24 09:11:16;;;;;;;0.20;0.20;;;;;;;24.09;61.05;100734.69;5020973;28;20423;-85
2022/06/24 09:16:26;;;;;;;0.13;0.13;;;;;;;24.19;60.77;100731.16;5128507;27;20403;-83
2022/06/24 09:18:56;;;;;;;0.30;0.30;;;;;;;24.10;59.34;100734.59;5127395;28;20127;-84
2022/06/24 09:24:02;;;;;;;2.53;0.43;;;;;;;24.46;60.85;100734.47;5129841;27;1195267;-85
2022/06/24 09:26:34;;;;;;;0.10;0.10;;;;;;;24.50;59.88;100736.81;5141254;27;20035;-85
2022/06/24 09:29:02;;;;;;;;;;;;;;;24.70;59.73;100734.38;5126235;27;20032;-82
2022/06/24 09:31:31;;;;;;;0.20;0.20;;;;;;;24.70;59.69;100739.81;5119083;28;19907;-83
2022/06/24 09:34:07;;;;;;;0.55;0.55;;;;;;;24.74;57.89;100727.72;5116754;28;20384;-83
2022/06/24 09:36:34;;;;;;;1.35;1.10;;;;;;;24.77;57.52;100732.88;5116022;28;20051;-83
2022/06/24 09:39:03;;;;;;;0.22;0.22;;;;;;;24.89;58.24;100730.16;5117010;28;20016;-83
2022/06/24 09:41:41;;;;;;;0.05;0.05;;;;;;;24.90;56.93;100737.28;5115154;28;20404;-84
2022/06/24 09:44:09;;;;;;;1.75;1.30;;;;;;;24.90;57.02;100737.28;5115944;28;20028;-84
2022/06/24 09:46:35;;;;;;;0.60;0.60;;;;;;;24.91;56.12;100734.47;5109794;28;20032;-83
2022/06/24 09:49:05;;;;;;;1.05;1.05;;;;;;;24.97;56.01;100733.06;5116953;28;20048;-83
2022/06/24 09:51:33;;;;;;;1.05;0.95;;;;;;;24.96;55.52;100736.78;5117553;28;20039;-84
2022/06/24 09:53:59;;;;;;;0.22;0.22;;;;;;;25.11;55.65;100730.09;5117758;28;20024;-84
2022/06/24 09:56:26;;;;;;;0.75;0.75;;;;;;;25.25;55.25;100730.78;5118399;28;20083;-84
2022/06/24 10:01:42;;;;;;;0.15;0.15;;;;;;;25.35;53.07;100732.56;5117372;28;20042;-83
2022/06/24 10:04:13;;;;;;;3.60;0.47;;;;;;;25.56;52.83;100722.78;5119823;28;20044;-83
2022/06/24 10:06:43;;;;;;;0.45;0.45;;;;;;;25.64;50.59;100728.41;5118737;28;20066;-84
2022/06/24 10:09:09;;;;;;;0.35;0.35;;;;;;;25.98;52.44;100720.06;5119119;28;20019;-84
2022/06/24 10:11:38;;;;;;;0.28;0.28;;;;;;;26.19;50.88;100732.78;5117550;28;20032;-84
2022/06/24 10:14:04;;;;;;;0.35;0.35;;;;;;;26.34;50.16;100720.53;5118990;28;20233;-84
2022/06/24 10:16:31;;;;;;;0.22;0.22;;;;;;;26.63;51.62;100723.38;5118399;28;20028;-83
2022/06/24 10:19:00;;;;;;;0.95;0.95;;;;;;;26.75;51.49;100721.41;5119198;28;20031;-84
2022/06/24 10:21:26;;;;;;;0.22;0.22;;;;;;;26.74;51.17;100722.44;5118496;28;20030;-84
2022/06/24 10:23:53;;;;;;;0.77;0.65;;;;;;;26.79;51.85;100714.72;5119311;28;20227;-84
2022/06/24 10:39:46;;;;;;;0.03;0.03;;;;;;;27.40;49.54;100707.38;5119445;27;20391;-84
2022/06/24 10:42:14;;;;;;;0.05;0.05;;;;;;;27.50;48.92;100714.66;5115751;28;20058;-84
2022/06/24 10:44:54;;;;;;;0.10;0.10;;;;;;;27.67;48.93;100700.31;5111040;28;20122;-85
2022/06/24 10:47:28;;;;;;;0.10;0.10;;;;;;;27.62;47.95;100707.22;5098743;28;20362;-84
2022/06/24 10:58:11;;;;;;;0.30;0.30;;;;;;;26.76;47.66;100709.56;5094192;27;20402;-83
2022/06/24 11:03:22;;;;;;;1.52;1.42;;;;;;;25.71;49.89;100716.03;5097161;27;20761;-82
2022/06/24 11:05:50;;;;;;;0.20;0.20;;;;;;;25.59;50.64;100717.09;5086601;28;20039;-85
2022/06/24 11:08:23;;;;;;;0.20;0.20;;;;;;;25.20;51.17;100712.19;5097480;28;20105;-84
2022/06/24 11:10:51;;;;;;;0.55;0.50;;;;;;;25.12;51.84;100710.13;5094272;28;20032;-85
2022/06/24 11:13:21;;;;;;;0.63;0.63;;;;;;;25.12;52.46;100712.84;5094440;28;20058;-86
2022/06/24 11:15:58;;;;;;;0.60;0.60;;;;;;;25.08;53.17;100714.06;5092510;28;20082;-85
2022/06/24 11:18:28;;;;;;;0.10;0.10;;;;;;;25.06;53.39;100707.06;5104049;22;20044;-75
2022/06/24 11:21:00;;;;;;;0.10;0.10;;;;;;;25.05;53.40;100703.50;5091889;28;20036;-76
2022/06/24 11:23:29;;;;;;;0.40;0.40;;;;;;;24.91;54.10;100695.66;5106796;28;20028;-76
2022/06/24 11:26:06;;;;;;;0.28;0.28;;;;;;;24.83;55.61;100705.25;5088162;28;20030;-75
2022/06/24 11:28:34;;;;;;;0.05;0.05;;;;;;;24.69;58.44;100697.44;5106128;28;20422;-75
2022/06/24 11:36:41;;;;;;;0.00;0.00;;;;;;;24.71;58.30;100703.56;5094401;27;20134;-76
2022/06/24 11:39:10;;;;;;;0.20;0.20;;;;;;;24.73;56.93;100698.88;5086642;28;20042;-76
2022/06/24 11:41:38;;;;;;;0.05;0.05;;;;;;;24.77;57.02;100694.09;5085628;28;20023;-75
2022/06/24 11:44:05;;;;;;;0.00;0.00;;;;;;;24.82;59.07;100698.16;5085997;28;20016;-75
2022/06/24 11:46:32;;;;;;;0.10;0.10;;;;;;;24.97;58.46;100697.84;5086999;28;20029;-76
2022/06/24 11:49:13;;;;;;;2.15;1.27;;;;;;;25.22;56.92;100693.06;5085054;28;20031;-76
2022/06/24 11:51:41;;;;;;;0.60;0.60;;;;;;;25.37;56.55;100686.38;5065741;28;20052;-77
2022/06/24 11:54:08;;;;;;;0.32;0.32;;;;;;;25.63;56.90;100686.00;5082854;28;20039;-77
2022/06/24 11:56:39;;;;;;;0.05;0.05;;;;;;;25.90;55.84;100687.31;5087813;28;20025;-77
2022/06/24 11:59:06;;;;;;;2.45;1.73;;;;;;;26.20;55.99;100691.91;5078978;28;20089;-77
2022/06/24 12:01:34;;;;;;;0.57;0.57;;;;;;;26.44;54.01;100694.31;5066645;28;20028;-77
2022/06/24 12:04:05;;;;;;;2.85;1.10;;;;;;;26.63;54.06;100695.31;5067685;28;20029;-77
2022/06/24 12:06:32;;;;;;;0.17;0.17;;;;;;;26.74;53.36;100692.56;5066827;28;20056;-77
2022/06/24 12:08:59;;;;;;;0.13;0.13;;;;;;;26.88;55.22;100693.13;5066861;28;20078;-77
2022/06/24 12:11:25;;;;;;;0.20;0.20;;;;;;;27.11;55.25;100694.56;5084885;28;20037;-77
2022/06/24 12:14:03;;;;;;;0.10;0.10;;;;;;;27.40;53.51;100699.22;5087214;28;20579;-77
2022/06/24 12:16:49;;;;;;;0.43;0.43;;;;;;;27.58;52.99;100685.72;5087413;28;20138;-77
2022/06/24 12:19:16;;;;;;;0.73;0.73;;;;;;;27.83;53.00;100696.16;5086317;28;20024;-77